createdAt,value
2022-10-19T00:01:51.617Z,11.40
2022-10-19T00:04:18.652Z,12.12
2022-10-19T00:06:46.636Z,12.29
2022-10-19T00:09:16.429Z,12.52
2022-10-19T00:11:46.106Z,12.32
2022-10-19T00:14:16.699Z,12.40
2022-10-19T00:16:46.349Z,12.85
2022-10-19T00:19:19.672Z,13.01
2022-10-19T00:21:47.176Z,12.89
2022-10-19T00:24:15.061Z,12.42
2022-10-19T00:26:42.009Z,12.57
2022-10-19T00:29:10.305Z,12.33
2022-10-19T00:31:38.498Z,12.03
2022-10-19T00:34:05.295Z,12.23
2022-10-19T00:36:34.640Z,12.20
2022-10-19T00:39:03.248Z,12.27
2022-10-19T00:41:32.307Z,12.13
2022-10-19T00:44:00.491Z,12.11
2022-10-19T00:46:29.792Z,11.41
2022-10-19T00:49:22.185Z,11.45
2022-10-19T00:51:55.678Z,10.96
2022-10-19T00:54:24.075Z,10.89
2022-10-19T00:56:53.718Z,11.35
2022-10-19T00:59:24.948Z,11.65
2022-10-19T01:01:54.138Z,12.00
2022-10-19T01:04:23.602Z,10.77
2022-10-19T01:09:23.618Z,11.52
2022-10-19T01:12:18.148Z,11.62
2022-10-19T01:15:15.094Z,11.98
2022-10-19T01:18:14.025Z,12.15
2022-10-19T01:21:21.143Z,12.14
2022-10-19T01:24:23.131Z,12.04
2022-10-19T01:27:11.888Z,11.23
2022-10-19T01:30:24.059Z,11.37
2022-10-19T01:33:16.088Z,11.48
2022-10-19T01:36:06.417Z,11.12
2022-10-19T01:38:42.968Z,11.57
2022-10-19T01:41:18.108Z,11.79
2022-10-19T01:44:14.048Z,11.65
2022-10-19T01:47:06.468Z,11.85
2022-10-19T01:49:44.734Z,11.73
2022-10-19T01:52:18.287Z,11.98
2022-10-19T01:54:49.608Z,11.90
2022-10-19T01:57:23.915Z,11.66
2022-10-19T01:59:52.505Z,11.28
2022-10-19T02:02:20.959Z,11.26
2022-10-19T02:04:50.512Z,10.67
2022-10-19T02:07:20.549Z,10.04
2022-10-19T02:09:47.278Z,10.01
2022-10-19T02:12:16.317Z,10.21
2022-10-19T02:14:47.431Z,10.76
2022-10-19T02:17:21.532Z,10.89
2022-10-19T02:19:48.428Z,11.02
2022-10-19T02:22:15.160Z,11.09
2022-10-19T02:24:41.920Z,10.51
2022-10-19T02:27:10.163Z,10.40
2022-10-19T02:29:38.038Z,10.56
2022-10-19T02:32:05.629Z,10.79
2022-10-19T02:34:33.164Z,10.71
2022-10-19T02:37:00.047Z,10.77
2022-10-19T02:39:26.851Z,10.72
2022-10-19T02:42:20.405Z,10.73
2022-10-19T02:45:01.307Z,10.65
2022-10-19T02:47:33.708Z,10.93
2022-10-19T02:50:01.659Z,11.13
2022-10-19T02:52:28.501Z,11.03
2022-10-19T02:54:55.426Z,10.98
2022-10-19T02:57:24.657Z,10.91
2022-10-19T02:59:52.584Z,10.76
2022-10-19T03:02:20.652Z,10.51
2022-10-19T03:07:21.315Z,10.90
2022-10-19T03:09:48.482Z,11.08
2022-10-19T03:12:15.905Z,11.08
2022-10-19T03:14:42.833Z,10.66
2022-10-19T03:17:10.307Z,11.00
2022-10-19T03:19:37.175Z,11.01
2022-10-19T03:22:04.472Z,10.81
2022-10-19T03:24:32.357Z,10.57
2022-10-19T03:26:59.335Z,10.29
2022-10-19T03:29:26.079Z,10.06
2022-10-19T03:31:53.112Z,10.44
2022-10-19T03:34:21.175Z,9.94
2022-10-19T03:36:48.052Z,9.65
2022-10-19T03:39:16.119Z,9.34
2022-10-19T03:41:43.233Z,9.19
2022-10-19T03:44:11.473Z,9.74
2022-10-19T03:46:38.946Z,9.71
2022-10-19T03:49:06.497Z,9.94
2022-10-19T03:51:33.628Z,10.09
2022-10-19T03:54:03.549Z,10.36
2022-10-19T03:56:31.388Z,10.28
2022-10-19T03:59:00.325Z,10.04
2022-10-19T04:01:36.095Z,10.29
2022-10-19T04:04:15.833Z,10.08
2022-10-19T04:06:45.008Z,9.83
2022-10-19T04:09:14.419Z,10.24
2022-10-19T04:11:42.280Z,9.92
2022-10-19T04:14:13.698Z,10.31
2022-10-19T04:16:46.159Z,10.14
2022-10-19T04:19:16.755Z,10.10
2022-10-19T04:21:44.793Z,10.06
2022-10-19T04:24:14.520Z,9.85
2022-10-19T04:26:43.791Z,10.04
2022-10-19T04:29:11.466Z,9.96
2022-10-19T04:31:39.605Z,10.25
2022-10-19T04:34:07.298Z,9.65
2022-10-19T04:36:35.039Z,9.47
2022-10-19T04:39:03.651Z,9.48
2022-10-19T04:41:30.577Z,9.13
2022-10-19T04:44:00.040Z,9.67
2022-10-19T04:46:27.820Z,9.62
2022-10-19T04:48:55.696Z,9.82
2022-10-19T04:51:24.273Z,10.26
2022-10-19T04:53:52.499Z,10.29
2022-10-19T04:56:23.854Z,10.43
2022-10-19T04:58:50.765Z,10.01
2022-10-19T05:01:21.832Z,9.84
2022-10-19T05:03:54.116Z,9.93
2022-10-19T05:06:21.004Z,9.37
2022-10-19T05:08:50.121Z,9.21
2022-10-19T05:11:17.745Z,9.44
2022-10-19T05:13:45.215Z,9.78
2022-10-19T05:16:14.531Z,9.45
2022-10-19T05:18:41.557Z,9.83
2022-10-19T05:21:11.440Z,10.18
2022-10-19T05:23:39.387Z,10.43
2022-10-19T05:26:09.256Z,10.02
2022-10-19T05:28:36.647Z,10.33
2022-10-19T05:31:13.420Z,10.66
2022-10-19T05:33:41.206Z,10.29
2022-10-19T05:36:22.624Z,10.29
2022-10-19T05:38:50.356Z,10.29
2022-10-19T05:41:17.706Z,10.46
2022-10-19T05:43:48.326Z,10.62
2022-10-19T05:46:19.561Z,10.66
2022-10-19T05:48:47.213Z,10.23
2022-10-19T05:51:16.688Z,10.89
2022-10-19T05:53:43.769Z,10.99
2022-10-19T05:56:15.507Z,11.33
2022-10-19T05:58:42.821Z,10.79
2022-10-19T06:01:10.782Z,10.65
2022-10-19T06:03:37.816Z,11.03
2022-10-19T06:06:06.407Z,11.36
2022-10-19T06:08:33.372Z,11.09
2022-10-19T06:11:37.402Z,11.02
2022-10-19T06:14:07.326Z,10.90
2022-10-19T06:16:35.109Z,11.21
2022-10-19T06:19:02.005Z,11.07
2022-10-19T06:21:31.234Z,11.53
2022-10-19T06:24:02.480Z,11.02
2022-10-19T06:26:31.880Z,11.11
2022-10-19T06:29:00.626Z,11.19
2022-10-19T06:31:29.874Z,12.07
2022-10-19T06:33:57.094Z,11.21
2022-10-19T06:36:26.822Z,10.83
2022-10-19T06:38:55.965Z,11.81
2022-10-19T06:41:23.604Z,11.89
2022-10-19T06:43:54.653Z,11.64
2022-10-19T06:46:24.142Z,11.97
2022-10-19T06:48:56.728Z,11.92
2022-10-19T06:51:26.324Z,11.94
2022-10-19T06:53:56.618Z,12.20
2022-10-19T06:56:27.097Z,11.84
2022-10-19T06:58:54.717Z,12.23
2022-10-19T07:01:22.476Z,12.36
2022-10-19T07:03:54.077Z,12.02
2022-10-19T07:06:23.221Z,12.40
2022-10-19T07:08:50.009Z,12.83
2022-10-19T07:11:19.412Z,12.84
2022-10-19T07:13:46.448Z,12.83
2022-10-19T07:16:19.605Z,13.31
2022-10-19T07:18:51.980Z,13.06
2022-10-19T07:21:19.910Z,12.84
2022-10-19T07:23:50.126Z,13.15
2022-10-19T07:26:28.236Z,13.03
2022-10-19T07:28:56.811Z,13.34
2022-10-19T07:31:25.330Z,13.71
2022-10-19T07:33:53.935Z,13.23
2022-10-19T07:36:22.431Z,13.90
2022-10-19T07:41:31.698Z,14.84
2022-10-19T07:43:58.586Z,13.65
2022-10-19T07:46:29.238Z,14.21
2022-10-19T07:48:56.337Z,14.00
2022-10-19T07:51:23.498Z,14.22
2022-10-19T07:53:50.309Z,14.08
2022-10-19T07:56:22.506Z,14.62
2022-10-19T07:58:54.470Z,15.04
2022-10-19T08:01:27.677Z,14.54
2022-10-19T08:06:42.897Z,15.42
2022-10-19T08:09:11.323Z,14.96
2022-10-19T08:11:42.546Z,15.42
2022-10-19T08:14:11.557Z,15.77
2022-10-19T08:16:44.538Z,16.86
2022-10-19T08:19:14.492Z,16.95
2022-10-19T08:21:43.632Z,16.71
2022-10-19T08:24:12.062Z,16.40
2022-10-19T08:26:40.196Z,16.35
2022-10-19T08:29:27.723Z,16.65
2022-10-19T08:31:57.604Z,18.08
2022-10-19T08:34:24.618Z,18.08
2022-10-19T08:36:53.643Z,18.14
2022-10-19T08:39:20.357Z,18.18
2022-10-19T08:42:08.645Z,18.19
2022-10-19T08:45:12.404Z,18.58
2022-10-19T08:48:00.790Z,18.82
2022-10-19T08:50:39.544Z,19.02
2022-10-19T08:53:42.726Z,18.64
2022-10-19T08:56:51.791Z,19.02
2022-10-19T08:59:30.835Z,19.46
2022-10-19T09:02:02.396Z,19.87
2022-10-19T09:04:36.754Z,19.79
2022-10-19T09:07:24.543Z,19.91
2022-10-19T09:10:10.803Z,20.59
2022-10-19T09:12:48.789Z,20.73
2022-10-19T09:15:19.335Z,21.09
2022-10-19T09:17:46.501Z,21.34
2022-10-19T09:20:21.370Z,21.54
2022-10-19T09:23:17.432Z,21.39
2022-10-19T09:25:44.328Z,21.91
2022-10-19T09:28:10.973Z,21.84
2022-10-19T09:30:41.250Z,21.39
2022-10-19T09:33:16.350Z,21.97
2022-10-19T09:35:45.682Z,22.75
2022-10-19T09:38:16.885Z,22.55
2022-10-19T09:40:44.012Z,21.79
2022-10-19T09:43:23.977Z,22.13
2022-10-19T09:46:19.687Z,22.73
2022-10-19T09:48:52.302Z,22.52
2022-10-19T09:51:20.878Z,22.76
2022-10-19T09:53:55.118Z,22.38
2022-10-19T09:56:25.211Z,23.08
2022-10-19T09:58:57.725Z,22.71
2022-10-19T10:01:43.020Z,22.96
2022-10-19T10:04:15.321Z,23.32
2022-10-19T10:06:44.328Z,23.31
2022-10-19T10:09:19.473Z,23.12
2022-10-19T10:11:49.894Z,22.98
2022-10-19T10:14:24.145Z,22.82
2022-10-19T10:17:02.336Z,23.31
2022-10-19T10:19:31.678Z,22.89
2022-10-19T10:21:59.793Z,22.88
2022-10-19T10:24:31.500Z,23.35
2022-10-19T10:27:06.332Z,22.31
2022-10-19T10:29:39.103Z,22.77
2022-10-19T10:32:17.142Z,22.97
2022-10-19T10:34:53.066Z,22.94
2022-10-19T10:37:29.678Z,22.34
2022-10-19T10:40:00.536Z,22.98
2022-10-19T10:42:41.326Z,23.38
2022-10-19T10:45:40.229Z,22.75
2022-10-19T10:48:25.321Z,22.87
2022-10-19T10:50:53.118Z,22.68
2022-10-19T10:53:50.084Z,22.97
2022-10-19T10:56:35.363Z,23.03
2022-10-19T10:59:10.683Z,23.45
2022-10-19T11:01:53.315Z,22.95
2022-10-19T11:04:25.380Z,23.52
2022-10-19T11:06:58.381Z,23.48
2022-10-19T11:09:36.632Z,22.83
2022-10-19T11:12:09.046Z,23.52
2022-10-19T11:14:44.383Z,24.23
2022-10-19T11:17:22.725Z,24.26
2022-10-19T11:19:52.497Z,23.98
2022-10-19T11:22:39.426Z,24.39
2022-10-19T11:25:46.304Z,24.49
2022-10-19T11:28:48.632Z,24.59
2022-10-19T11:31:36.002Z,24.83
2022-10-19T11:34:37.910Z,24.61
2022-10-19T11:37:10.415Z,24.58
2022-10-19T11:40:06.745Z,24.93
2022-10-19T11:43:06.949Z,25.01
2022-10-19T11:45:55.019Z,24.22
2022-10-19T11:48:40.411Z,24.51
2022-10-19T11:51:33.801Z,24.61
2022-10-19T11:54:16.623Z,25.29
2022-10-19T11:57:20.617Z,25.14
2022-10-19T12:00:14.945Z,25.44
2022-10-19T12:03:15.360Z,25.72
2022-10-19T12:06:03.341Z,25.52
2022-10-19T12:08:40.812Z,25.15
2022-10-19T12:11:17.872Z,25.52
2022-10-19T12:14:00.695Z,25.73
2022-10-19T12:16:50.738Z,25.62
2022-10-19T12:19:32.772Z,26.06
2022-10-19T12:22:03.575Z,26.48
2022-10-19T12:24:33.711Z,26.83
2022-10-19T12:27:01.846Z,27.24
2022-10-19T12:29:34.504Z,27.60
2022-10-19T12:32:03.049Z,27.96
2022-10-19T12:34:35.855Z,26.67
2022-10-19T12:37:28.880Z,27.30
2022-10-19T12:40:23.598Z,28.23
2022-10-19T12:42:59.516Z,28.72
2022-10-19T12:45:32.300Z,27.59
2022-10-19T12:48:08.031Z,27.87
2022-10-19T12:50:50.446Z,26.88
2022-10-19T12:53:30.995Z,27.92
2022-10-19T12:56:10.088Z,28.08
2022-10-19T12:58:47.856Z,27.92
2022-10-19T13:01:22.141Z,28.41
2022-10-19T13:03:54.010Z,29.09
2022-10-19T13:06:23.586Z,29.22
2022-10-19T13:08:53.445Z,29.47
2022-10-19T13:11:20.924Z,29.74
2022-10-19T13:13:56.943Z,29.84
2022-10-19T13:16:30.107Z,30.10
2022-10-19T13:19:00.109Z,29.40
2022-10-19T13:21:49.900Z,30.43
2022-10-19T13:24:23.666Z,29.84
2022-10-19T13:27:02.641Z,29.67
2022-10-19T13:29:49.838Z,29.86
2022-10-19T13:32:44.535Z,29.57
2022-10-19T13:35:34.337Z,28.29
2022-10-19T13:38:12.860Z,28.19
2022-10-19T13:41:09.147Z,28.36
2022-10-19T13:43:38.535Z,28.67
2022-10-19T13:46:20.461Z,29.01
2022-10-19T13:49:02.521Z,27.92
2022-10-19T13:51:39.262Z,28.09
2022-10-19T13:54:22.111Z,27.18
2022-10-19T13:57:26.151Z,26.84
2022-10-19T14:00:30.387Z,26.77
2022-10-19T14:03:49.387Z,26.75
2022-10-19T14:06:35.619Z,25.89
2022-10-19T14:09:29.580Z,26.31
2022-10-19T14:12:08.158Z,26.82
2022-10-19T14:14:43.869Z,26.81
2022-10-19T14:17:15.577Z,27.31
2022-10-19T14:19:47.486Z,27.01
2022-10-19T14:22:18.723Z,27.29
2022-10-19T14:24:45.672Z,26.84
2022-10-19T14:27:19.247Z,27.08
2022-10-19T14:29:50.819Z,26.46
2022-10-19T14:32:21.317Z,26.72
2022-10-19T14:34:48.792Z,26.14
2022-10-19T14:37:21.043Z,25.95
2022-10-19T14:40:06.214Z,24.96
2022-10-19T14:42:42.867Z,25.46
2022-10-19T14:45:23.084Z,25.48
2022-10-19T14:47:59.003Z,24.99
2022-10-19T14:50:45.445Z,25.21
2022-10-19T14:53:40.206Z,25.23
2022-10-19T14:56:23.659Z,24.94
2022-10-19T14:58:59.338Z,23.86
2022-10-19T15:01:26.443Z,24.27
2022-10-19T15:03:53.773Z,24.09
2022-10-19T15:06:27.344Z,24.12
2022-10-19T15:09:12.034Z,24.71
2022-10-19T15:11:47.521Z,23.89
2022-10-19T15:14:24.599Z,24.38
2022-10-19T15:16:56.050Z,23.80
2022-10-19T15:19:29.087Z,24.07
2022-10-19T15:22:21.836Z,23.81
2022-10-19T15:25:06.767Z,23.57
2022-10-19T15:27:39.649Z,23.53
2022-10-19T15:30:31.855Z,23.34
2022-10-19T15:33:01.643Z,23.26
2022-10-19T15:35:34.430Z,23.59
2022-10-19T15:38:17.070Z,23.16
2022-10-19T15:40:46.302Z,22.56
2022-10-19T15:43:33.068Z,22.46
2022-10-19T15:46:21.322Z,22.99
2022-10-19T15:48:55.329Z,22.38
2022-10-19T15:51:25.600Z,22.57
2022-10-19T15:53:54.557Z,22.24
2022-10-19T15:56:23.294Z,22.23
2022-10-19T15:58:55.496Z,21.92
2022-10-19T16:01:29.479Z,22.27
2022-10-19T16:03:56.933Z,22.08
2022-10-19T16:06:27.970Z,22.26
2022-10-19T16:08:55.035Z,22.05
2022-10-19T16:11:23.410Z,22.13
2022-10-19T16:13:51.653Z,22.31
2022-10-19T16:16:38.899Z,21.64
2022-10-19T16:19:05.803Z,21.63
2022-10-19T16:21:36.770Z,22.09
2022-10-19T16:24:03.996Z,21.96
2022-10-19T16:26:32.167Z,21.95
2022-10-19T16:29:00.719Z,21.87
2022-10-19T16:31:27.577Z,21.62
2022-10-19T16:33:54.439Z,21.31
2022-10-19T16:36:21.347Z,21.21
2022-10-19T16:38:48.463Z,21.50
2022-10-19T16:41:16.196Z,21.11
2022-10-19T16:43:42.944Z,21.01
2022-10-19T16:46:09.932Z,20.83
2022-10-19T16:48:36.972Z,21.06
2022-10-19T16:51:06.898Z,21.11
2022-10-19T16:53:35.334Z,20.60
2022-10-19T16:56:07.597Z,21.22
2022-10-19T16:58:34.796Z,20.89
2022-10-19T17:01:10.547Z,21.00
2022-10-19T17:03:37.695Z,21.12
2022-10-19T17:06:08.683Z,21.04
2022-10-19T17:09:02.343Z,21.25
2022-10-19T17:11:31.909Z,20.94
2022-10-19T17:14:02.056Z,21.28
2022-10-19T17:16:31.216Z,20.97
2022-10-19T17:18:59.535Z,20.69
2022-10-19T17:21:28.812Z,20.63
2022-10-19T17:23:58.921Z,20.49
2022-10-19T17:26:37.397Z,20.80
2022-10-19T17:29:05.050Z,20.45
2022-10-19T17:31:32.003Z,20.19
2022-10-19T17:34:00.908Z,20.41
2022-10-19T17:36:30.757Z,20.37
2022-10-19T17:39:00.493Z,20.18
2022-10-19T17:41:28.671Z,20.04
2022-10-19T17:43:56.932Z,19.83
2022-10-19T17:46:30.216Z,20.01
2022-10-19T17:48:58.259Z,19.74
2022-10-19T17:51:27.629Z,20.25
2022-10-19T17:53:58.970Z,20.18
2022-10-19T17:56:26.603Z,20.23
2022-10-19T17:58:54.031Z,19.76
2022-10-19T18:01:22.111Z,19.64
2022-10-19T18:03:49.623Z,20.06
2022-10-19T18:06:16.600Z,19.42
2022-10-19T18:08:47.029Z,20.10
2022-10-19T18:11:16.697Z,19.22
2022-10-19T18:13:45.211Z,19.69
2022-10-19T18:16:15.216Z,19.47
2022-10-19T18:18:45.723Z,19.62
2022-10-19T18:21:14.799Z,19.30
2022-10-19T18:23:41.908Z,19.30
2022-10-19T18:26:12.316Z,19.55
2022-10-19T18:28:39.803Z,19.26
2022-10-19T18:31:20.839Z,19.62
2022-10-19T18:33:50.392Z,19.90
2022-10-19T18:36:17.082Z,19.45
2022-10-19T18:38:43.887Z,19.40
2022-10-19T18:43:44.256Z,19.16
2022-10-19T18:46:10.984Z,19.35
2022-10-19T18:48:38.261Z,18.96
2022-10-19T18:51:08.307Z,19.18
2022-10-19T18:53:35.265Z,19.29
2022-10-19T18:56:05.667Z,19.32
2022-10-19T18:58:33.068Z,19.58
2022-10-19T19:01:04.036Z,19.26
2022-10-19T19:03:31.002Z,19.17
2022-10-19T19:06:02.207Z,18.91
2022-10-19T19:08:30.649Z,19.25
2022-10-19T19:10:57.882Z,19.11
2022-10-19T19:13:24.807Z,18.91
2022-10-19T19:16:00.618Z,18.76
2022-10-19T19:18:27.561Z,18.72
2022-10-19T19:20:55.495Z,18.33
2022-10-19T19:23:22.212Z,18.52
2022-10-19T19:25:49.019Z,18.49
2022-10-19T19:28:15.895Z,18.34
2022-10-19T19:30:45.097Z,18.31
2022-10-19T19:33:13.260Z,18.27
2022-10-19T19:35:44.145Z,18.71
2022-10-19T19:38:11.774Z,18.59
2022-10-19T19:40:41.219Z,18.44
2022-10-19T19:43:09.305Z,18.68
2022-10-19T19:45:37.133Z,18.60
2022-10-19T19:48:06.023Z,18.23
2022-10-19T19:50:33.590Z,18.05
2022-10-19T19:53:02.236Z,18.15
2022-10-19T19:55:30.878Z,18.51
2022-10-19T19:57:58.980Z,18.37
2022-10-19T20:00:25.784Z,18.29
2022-10-19T20:02:57.227Z,18.43
2022-10-19T20:05:25.721Z,18.06
2022-10-19T20:07:52.926Z,18.10
2022-10-19T20:10:19.904Z,18.00
2022-10-19T20:12:47.266Z,18.17
2022-10-19T20:15:16.260Z,18.09
2022-10-19T20:17:43.696Z,18.44
2022-10-19T20:20:12.319Z,18.51
2022-10-19T20:22:39.201Z,18.65
2022-10-19T20:25:06.629Z,18.64
2022-10-19T20:27:36.713Z,18.79
2022-10-19T20:30:04.277Z,18.46
2022-10-19T20:32:31.846Z,18.30
2022-10-19T20:34:58.543Z,18.72
2022-10-19T20:37:26.072Z,18.31
2022-10-19T20:39:52.805Z,18.56
2022-10-19T20:42:19.610Z,18.61
2022-10-19T20:44:46.455Z,18.46
2022-10-19T20:47:13.154Z,18.34
2022-10-19T20:49:40.901Z,18.51
2022-10-19T20:52:08.032Z,18.77
2022-10-19T20:54:35.946Z,18.61
2022-10-19T20:57:02.829Z,18.55
2022-10-19T20:59:31.485Z,18.63
2022-10-19T21:01:58.296Z,18.12
2022-10-19T21:04:25.727Z,18.43
2022-10-19T21:06:52.914Z,18.19
2022-10-19T21:09:38.736Z,18.80
2022-10-19T21:12:05.510Z,18.15
2022-10-19T21:14:32.409Z,18.02
2022-10-19T21:17:00.321Z,18.31
2022-10-19T21:19:29.330Z,18.48
2022-10-19T21:22:01.782Z,18.43
2022-10-19T21:24:33.242Z,18.19
2022-10-19T21:27:01.551Z,18.31
2022-10-19T21:29:28.356Z,18.21
2022-10-19T21:31:55.095Z,18.32
2022-10-19T21:34:27.510Z,18.47
2022-10-19T21:36:55.422Z,18.19
2022-10-19T21:39:22.682Z,18.58
2022-10-19T21:41:50.298Z,18.75
2022-10-19T21:44:18.487Z,18.54
2022-10-19T21:46:47.742Z,18.23
2022-10-19T21:49:15.040Z,18.40
2022-10-19T21:51:50.179Z,18.35
2022-10-19T21:54:19.556Z,18.42
2022-10-19T21:56:46.867Z,18.42
2022-10-19T21:59:14.189Z,18.18
2022-10-19T22:01:41.852Z,18.38
2022-10-19T22:04:12.658Z,18.37
2022-10-19T22:06:40.692Z,18.13
2022-10-19T22:09:09.482Z,17.97
2022-10-19T22:11:36.221Z,17.54
2022-10-19T22:14:04.688Z,17.76
2022-10-19T22:16:32.916Z,18.06
2022-10-19T22:19:51.292Z,18.11
2022-10-19T22:22:18.094Z,18.00
2022-10-19T22:24:44.888Z,17.94
2022-10-19T22:27:11.893Z,17.75
2022-10-19T22:29:38.586Z,17.66
2022-10-19T22:32:05.572Z,17.99
2022-10-19T22:34:32.381Z,18.07
2022-10-19T22:37:27.144Z,18.43
2022-10-19T22:39:54.028Z,18.19
2022-10-19T22:42:20.717Z,18.30
2022-10-19T22:44:47.443Z,18.48
2022-10-19T22:47:14.199Z,18.73
2022-10-19T22:49:40.997Z,18.85
2022-10-19T22:52:07.738Z,18.51
2022-10-19T22:54:34.983Z,18.86
2022-10-19T22:57:02.887Z,19.21
2022-10-19T22:59:29.671Z,18.91
2022-10-19T23:01:56.504Z,18.62
2022-10-19T23:04:23.420Z,18.86
2022-10-19T23:06:50.145Z,18.43
2022-10-19T23:09:16.930Z,18.36
2022-10-19T23:11:43.664Z,18.70
2022-10-19T23:14:10.418Z,18.39
2022-10-19T23:16:37.352Z,18.62
2022-10-19T23:19:04.055Z,18.58
2022-10-19T23:21:31.021Z,18.29
2022-10-19T23:23:57.894Z,18.77
2022-10-19T23:26:25.469Z,18.78
2022-10-19T23:28:52.684Z,18.75
2022-10-19T23:31:26.123Z,18.83
2022-10-19T23:33:54.813Z,19.08
2022-10-19T23:36:23.938Z,19.05
2022-10-19T23:38:52.223Z,19.02
2022-10-19T23:41:20.360Z,18.83
2022-10-19T23:43:47.731Z,18.65
2022-10-19T23:46:14.822Z,18.82
2022-10-19T23:48:42.217Z,18.63
2022-10-19T23:51:15.131Z,18.98
2022-10-19T23:53:44.945Z,18.56
2022-10-19T23:56:18.142Z,18.67
2022-10-19T23:58:45.551Z,18.41
